Newburgh, Indiana
Current Conditions -  °F | °C
As of 11:54 AM on Monday 24 Nov 2014 (Local Time) from KEVV Reporting Station
Overcast Overcast  
Wind Chill: 38°   Ceiling: 3600
Heat Index: 46°   Visibility: 10mi
Dew Point: 35°   Wind: 20mph
Humidity: 66%   Direction: 230°SW
Pressure: 29.71"   Gusts: 25mph
Location:  37.95°N, 87.4°W
Report Text: KEVV 241754Z 23017G22KT 10SM OVC036 08/02 A2971 RMK AO2 PK WND 23027/1703 SLP059 60009 T00780017 10133 20061 51026
Loading
Personal Weather Stations






























Interactive Weather Map New forecast layout! Learn more

10-Day Weather Forecast

Advertisements
Track Severe Weather on mobile